createdAt,value
2022-12-31T00:02:00.055Z,4.08
2022-12-31T00:07:02.223Z,4.11
2022-12-31T00:12:04.498Z,4.10
2022-12-31T00:17:06.636Z,4.09
2022-12-31T00:22:08.768Z,4.09
2022-12-31T00:27:10.946Z,4.12
2022-12-31T00:32:13.067Z,4.00
2022-12-31T00:37:15.147Z,4.20
2022-12-31T00:42:17.296Z,4.08
2022-12-31T00:47:19.385Z,4.24
2022-12-31T00:52:21.523Z,4.29
2022-12-31T00:57:23.767Z,4.30
2022-12-31T01:02:26.008Z,4.32
2022-12-31T01:07:28.248Z,4.37
2022-12-31T01:12:30.356Z,4.43
2022-12-31T01:17:32.456Z,4.47
2022-12-31T01:22:34.591Z,4.43
2022-12-31T01:27:36.710Z,4.44
2022-12-31T01:32:38.815Z,4.45
2022-12-31T01:37:40.985Z,4.32
2022-12-31T01:42:43.365Z,4.27
2022-12-31T01:47:52.277Z,4.33
2022-12-31T01:52:58.308Z,4.21
2022-12-31T01:58:30.849Z,4.15
2022-12-31T02:03:33.050Z,4.09
2022-12-31T02:08:41.929Z,4.09
2022-12-31T02:13:44.556Z,4.07
2022-12-31T02:19:12.055Z,4.22
2022-12-31T02:24:19.716Z,4.17
2022-12-31T02:29:21.703Z,4.21
2022-12-31T02:34:29.485Z,4.23
2022-12-31T02:39:33.608Z,4.21
2022-12-31T02:44:38.382Z,4.26
2022-12-31T02:50:13.532Z,4.42
2022-12-31T02:55:36.844Z,4.31
2022-12-31T03:01:05.691Z,4.35
2022-12-31T03:06:09.684Z,4.18
2022-12-31T03:11:31.791Z,4.16
2022-12-31T03:16:35.079Z,4.60
2022-12-31T03:21:57.757Z,4.21
2022-12-31T03:26:59.756Z,4.08
2022-12-31T03:32:01.959Z,4.18
2022-12-31T03:37:04.024Z,4.20
2022-12-31T03:42:06.198Z,4.23
2022-12-31T03:47:08.224Z,4.22
2022-12-31T03:52:10.316Z,4.20
2022-12-31T03:57:12.584Z,4.18
2022-12-31T04:02:14.800Z,4.14
2022-12-31T04:07:17.377Z,4.18
2022-12-31T04:12:19.535Z,4.11
2022-12-31T04:17:21.612Z,4.06
2022-12-31T04:22:23.757Z,4.13
2022-12-31T04:27:25.858Z,4.12
2022-12-31T04:32:27.904Z,4.13
2022-12-31T04:37:29.977Z,4.12
2022-12-31T04:42:32.027Z,4.07
2022-12-31T04:47:34.243Z,4.00
2022-12-31T04:52:42.439Z,4.04
2022-12-31T04:57:45.045Z,4.04
2022-12-31T05:02:47.164Z,4.05
2022-12-31T05:07:49.439Z,4.03
2022-12-31T05:12:51.576Z,3.99
2022-12-31T05:17:53.705Z,3.79
2022-12-31T05:22:55.954Z,3.80
2022-12-31T05:27:58.098Z,3.89
2022-12-31T05:33:00.214Z,3.89
2022-12-31T05:38:02.906Z,3.84
2022-12-31T05:43:07.238Z,3.74
2022-12-31T05:48:09.285Z,3.83
2022-12-31T05:53:11.509Z,3.80
2022-12-31T05:58:16.081Z,3.89
2022-12-31T06:03:18.232Z,3.87
2022-12-31T06:08:20.449Z,3.86
2022-12-31T06:13:22.541Z,3.81
2022-12-31T06:18:24.628Z,3.79
2022-12-31T06:23:26.924Z,3.83
2022-12-31T06:28:29.099Z,3.81
2022-12-31T06:33:31.838Z,3.80
2022-12-31T06:38:37.110Z,3.87
2022-12-31T06:43:40.255Z,3.86
2022-12-31T06:48:44.741Z,3.85
2022-12-31T06:53:48.465Z,3.92
2022-12-31T06:58:51.346Z,3.93
2022-12-31T07:04:11.553Z,4.07
2022-12-31T07:09:21.609Z,4.06
2022-12-31T07:14:53.732Z,4.18
2022-12-31T07:20:12.818Z,4.43
2022-12-31T07:25:19.398Z,4.10
2022-12-31T07:30:29.848Z,4.10
2022-12-31T07:35:50.691Z,4.26
2022-12-31T07:41:12.852Z,4.19
2022-12-31T07:46:54.422Z,4.37
2022-12-31T07:51:56.894Z,4.27
2022-12-31T07:56:59.128Z,4.24
2022-12-31T08:02:14.525Z,4.37
2022-12-31T08:07:19.664Z,4.43
2022-12-31T08:12:23.456Z,4.56
2022-12-31T08:17:26.096Z,4.63
2022-12-31T08:23:14.597Z,4.82
2022-12-31T08:28:35.369Z,4.84
2022-12-31T08:34:06.076Z,4.78
2022-12-31T08:39:40.902Z,4.85
2022-12-31T08:44:55.903Z,4.70
2022-12-31T08:49:58.251Z,4.62
2022-12-31T08:55:00.795Z,4.58
2022-12-31T09:00:11.136Z,4.79
2022-12-31T09:05:26.414Z,4.90
2022-12-31T09:10:40.516Z,4.84
2022-12-31T09:15:57.817Z,5.09
2022-12-31T09:21:00.066Z,5.06
2022-12-31T09:26:11.319Z,5.11
2022-12-31T09:31:16.390Z,5.01
2022-12-31T09:36:26.969Z,5.04
2022-12-31T09:41:54.142Z,5.25
2022-12-31T09:47:21.758Z,5.26
2022-12-31T09:52:47.532Z,5.42
2022-12-31T09:58:16.426Z,5.52
2022-12-31T10:03:25.333Z,5.37
2022-12-31T10:08:49.281Z,5.45
2022-12-31T10:14:13.122Z,5.30
2022-12-31T10:20:07.947Z,5.20
2022-12-31T10:25:48.470Z,5.01
2022-12-31T10:31:12.995Z,4.91
2022-12-31T10:36:52.290Z,4.85
2022-12-31T10:42:12.921Z,4.88
2022-12-31T10:47:42.698Z,4.94
2022-12-31T10:53:12.379Z,5.02
2022-12-31T10:58:32.313Z,5.05
2022-12-31T11:03:52.483Z,5.01
2022-12-31T11:09:18.759Z,5.03
2022-12-31T11:14:50.799Z,5.18
2022-12-31T11:20:02.786Z,5.10
2022-12-31T11:25:23.205Z,5.13
2022-12-31T11:30:45.864Z,5.14
2022-12-31T11:36:07.609Z,5.18
2022-12-31T11:41:55.719Z,5.27
2022-12-31T11:47:56.486Z,5.23
2022-12-31T11:53:41.485Z,5.06
2022-12-31T11:58:51.166Z,4.82
2022-12-31T12:03:53.396Z,4.50
2022-12-31T12:09:14.942Z,4.69
2022-12-31T12:14:37.560Z,4.66
2022-12-31T12:19:46.024Z,4.50
2022-12-31T12:25:03.740Z,4.46
2022-12-31T12:30:10.423Z,4.41
2022-12-31T12:35:19.865Z,4.44
2022-12-31T12:40:33.502Z,4.45
2022-12-31T12:45:51.784Z,4.63
2022-12-31T12:50:54.771Z,4.57
2022-12-31T12:55:59.418Z,4.60
2022-12-31T13:01:13.798Z,4.55
2022-12-31T13:06:41.008Z,4.59
2022-12-31T13:12:02.288Z,4.37
2022-12-31T13:17:07.635Z,4.25
2022-12-31T13:22:32.521Z,4.17
2022-12-31T13:27:39.287Z,4.13
2022-12-31T13:32:46.180Z,4.07
2022-12-31T13:37:51.240Z,4.03
2022-12-31T13:43:08.044Z,4.14
2022-12-31T13:48:37.201Z,4.13
2022-12-31T13:53:51.603Z,3.96
2022-12-31T13:59:04.918Z,3.95
2022-12-31T14:04:25.179Z,3.91
2022-12-31T14:09:30.610Z,3.94
2022-12-31T14:15:08.921Z,4.04
2022-12-31T14:20:34.126Z,4.09
2022-12-31T14:25:59.704Z,4.17
2022-12-31T14:31:46.304Z,4.29
2022-12-31T14:36:48.340Z,4.14
2022-12-31T14:42:03.781Z,4.32
2022-12-31T14:47:36.074Z,4.32
2022-12-31T14:52:51.901Z,4.25
2022-12-31T14:58:26.488Z,4.09
2022-12-31T15:03:16.678Z,4.12
2022-12-31T15:08:37.439Z,4.30
2022-12-31T15:13:58.024Z,4.30
2022-12-31T15:19:44.492Z,4.19
2022-12-31T15:24:47.809Z,3.97
2022-12-31T15:29:49.885Z,3.96
2022-12-31T15:35:04.978Z,4.00
2022-12-31T15:40:20.367Z,3.95
2022-12-31T15:45:38.036Z,3.74
2022-12-31T15:50:41.934Z,3.71
2022-12-31T15:55:52.234Z,3.80
2022-12-31T16:01:14.631Z,3.72
2022-12-31T16:06:17.405Z,3.54
2022-12-31T16:11:19.600Z,3.57
2022-12-31T16:16:23.296Z,3.56
2022-12-31T16:21:25.409Z,3.55
2022-12-31T16:26:46.860Z,3.68
2022-12-31T16:31:51.029Z,3.61
2022-12-31T16:37:05.694Z,3.55
2022-12-31T16:42:14.599Z,3.49
2022-12-31T16:47:22.496Z,3.46
2022-12-31T16:52:30.584Z,3.41
2022-12-31T16:57:32.891Z,3.35
2022-12-31T17:02:38.608Z,3.40
2022-12-31T17:07:42.808Z,3.40
2022-12-31T17:18:25.795Z,3.31
2022-12-31T17:23:34.217Z,3.30
2022-12-31T17:28:46.889Z,3.28
2022-12-31T17:34:05.898Z,3.33
2022-12-31T17:39:17.864Z,3.48
2022-12-31T17:44:29.025Z,3.57
2022-12-31T17:49:32.058Z,3.46
2022-12-31T17:54:34.166Z,3.45
2022-12-31T17:59:36.368Z,3.43
2022-12-31T18:04:38.525Z,3.33
2022-12-31T18:09:40.618Z,3.25
2022-12-31T18:14:45.725Z,3.24
2022-12-31T18:20:04.918Z,3.22
2022-12-31T18:25:13.563Z,3.23
2022-12-31T18:30:19.038Z,3.07
2022-12-31T18:35:57.569Z,2.94
2022-12-31T18:40:51.069Z,2.89
2022-12-31T18:45:53.795Z,2.84
2022-12-31T18:50:56.409Z,2.72
2022-12-31T18:55:58.613Z,2.89
2022-12-31T19:01:01.047Z,2.90
2022-12-31T19:06:03.287Z,2.99
2022-12-31T19:11:05.590Z,3.17
2022-12-31T19:16:10.200Z,3.21
2022-12-31T19:21:23.024Z,3.29
2022-12-31T19:26:25.296Z,3.22
2022-12-31T19:31:27.356Z,3.28
2022-12-31T19:36:29.609Z,3.28
2022-12-31T19:41:32.204Z,3.24
2022-12-31T19:46:34.409Z,3.21
2022-12-31T19:51:36.593Z,3.22
2022-12-31T19:56:38.812Z,3.20
2022-12-31T20:01:40.997Z,3.16
2022-12-31T20:06:43.093Z,3.04
2022-12-31T20:11:45.117Z,2.94
2022-12-31T20:16:47.273Z,2.99
2022-12-31T20:21:49.400Z,3.16
2022-12-31T20:26:51.606Z,3.28
2022-12-31T20:31:53.807Z,3.22
2022-12-31T20:36:56.065Z,3.31
2022-12-31T20:41:58.208Z,3.41
2022-12-31T20:47:00.419Z,3.33
2022-12-31T20:52:05.429Z,3.29
2022-12-31T20:57:08.476Z,3.21
2022-12-31T21:02:26.441Z,3.28
2022-12-31T21:07:36.466Z,3.21
2022-12-31T21:12:44.877Z,3.22
2022-12-31T21:17:47.350Z,3.25
2022-12-31T21:22:49.480Z,3.16
2022-12-31T21:27:51.578Z,3.07
2022-12-31T21:32:53.703Z,3.07
2022-12-31T21:37:58.393Z,3.07
2022-12-31T21:43:02.766Z,2.95
2022-12-31T21:48:21.503Z,3.15
2022-12-31T21:53:31.907Z,3.06
2022-12-31T21:58:45.583Z,2.99
2022-12-31T22:03:47.838Z,3.06
2022-12-31T22:08:53.561Z,3.14
2022-12-31T22:13:56.280Z,3.11
2022-12-31T22:18:58.444Z,3.15
2022-12-31T22:24:00.596Z,3.13
2022-12-31T22:29:02.651Z,3.12
2022-12-31T22:34:04.702Z,3.21
2022-12-31T22:39:06.843Z,3.19
2022-12-31T22:44:08.933Z,3.18
2022-12-31T22:49:11.371Z,3.23
2022-12-31T22:54:14.500Z,3.25
2022-12-31T22:59:17.360Z,3.24
2022-12-31T23:04:19.609Z,3.24
2022-12-31T23:09:40.524Z,3.20
2022-12-31T23:15:00.944Z,3.20
2022-12-31T23:20:22.473Z,3.20
2022-12-31T23:25:24.552Z,3.17
2022-12-31T23:30:26.575Z,3.19
2022-12-31T23:35:28.665Z,3.25
2022-12-31T23:40:34.441Z,3.28
2022-12-31T23:45:37.110Z,3.32
2022-12-31T23:50:40.834Z,3.37
2022-12-31T23:55:42.893Z,3.41
